首页
METAR-TAF:

METAR-TAF

机场 :

鲁昂, 法国

纬度: 49-23N, 经度: 001-11E, 海拔: 157米

当前天气观测

该预报发布于22分钟前的14:30 UTC
风速14节,风向西转西北,在西转西南西北之间变化
温度 15°C
湿度 55%
气压 1000 hPa
能见度10公里或以上
少量云层高于4000英尺
散云层高于4600英尺
多云层高于5600英尺

METAR: LFOP 051430Z AUTO 29014KT 250V320 9999 FEW040 SCT046 BKN056 15/06 Q1000 TEMPO 27020G30KT 4000 SHRA BKN025TCU

时间: 16:52 (14:52 UTC)

预报

该预报发布于3小时和52分钟前的11:00 UTC
预报有效从05日的 12点(UTC)到 06日的 12点(UTC)
风速13节,风向西
能见度10公里或以上
散云层高于2500英尺
短暂存在
从 05日的 12点(UTC)到 05日的 16点(UTC)
风速20节,风向西,有时为30节阵风
几率 30% :
短暂存在
从 05日的 15点(UTC)到 05日的 19点(UTC)
能見度: 4000
多云层高于2500英尺, 塔状积云.
阵雨
短暂存在
从 06日的 01点(UTC)到 06日的 08点(UTC)
能見度: 4000
多云层高于500英尺
多云层高于1500英尺, 塔状积云.
阵雨

TAF: LFOP 051100Z 0512/0612 27013KT 9999 SCT025 TEMPO 0512/0516 27020G30KT PROB30 TEMPO 0515/0519 4000 SHRA BKN025TCU TEMPO 0601/0608 4000 SHRA BKN005 BKN015TCU

超过4000个机场的气象观测和天气预报(METAR&TAF报告)。

可查询的气象台以黄色和红色小点在地图上表示。

将鼠标移到小点上方,可查看气象台名称。

然后点击查看天气观测和预报。

如需切换地图:点击带黑十字的绿色按钮放大地图;点击带横线的绿色按钮缩小地图;或者点击绿色箭头查看邻近地区的地图。


METAR-TAF: